Time;durP1;ratioP1;P1;durP2;ratioP2;P2;SDS_P1;SDS_P2;PMS_P1;PMS_P2;Temp;Humidity;BMP_temperature;BMP_pressure;BME280_temperature;BME280_humidity;BME280_pressure;Samples;Min_cycle;Max_cycle;Signal;HPM_P1;HPM_P2
2022/05/03 00:00:12;;;;;;;8.23;5.53;;;15.70;48.00;;;;;;5049196;28;20047;-53
2022/05/03 00:03:05;;;;;;;6.95;6.25;;;15.70;48.00;;;;;;5048220;28;20037;-53
2022/05/03 00:06:12;;;;;;;6.38;5.70;;;15.70;48.70;;;;;;5040419;28;20051;-50
2022/05/03 00:08:54;;;;;;;5.68;5.07;;;15.70;48.50;;;;;;5043217;28;20052;-53
2022/05/03 00:11:41;;;;;;;7.10;5.82;;;15.70;48.60;;;;;;5049474;28;20059;-49
2022/05/03 00:14:27;;;;;;;8.25;6.15;;;15.70;48.80;;;;;;5041676;28;20065;-53
2022/05/03 00:16:56;;;;;;;6.40;5.70;;;15.60;48.50;;;;;;5043845;28;20037;-52
2022/05/03 00:19:25;;;;;;;6.35;5.45;;;15.60;48.00;;;;;;5047754;28;20070;-50
2022/05/03 00:21:52;;;;;;;5.95;5.28;;;15.50;48.40;;;;;;5035815;28;20061;-52
2022/05/03 00:24:20;;;;;;;7.00;5.82;;;15.50;48.60;;;;;;5038017;28;20455;-50
2022/05/03 00:26:49;;;;;;;5.82;4.55;;;15.40;48.80;;;;;;5049578;28;20057;-51
2022/05/03 00:29:19;;;;;;;7.60;5.43;;;15.40;48.90;;;;;;5046429;28;20080;-51
2022/05/03 00:31:48;;;;;;;5.82;5.22;;;15.30;48.90;;;;;;5048039;28;20065;-49
2022/05/03 00:34:16;;;;;;;7.32;6.15;;;15.30;49.10;;;;;;5040447;28;20064;-49
2022/05/03 00:36:43;;;;;;;5.47;4.82;;;15.20;49.80;;;;;;5041906;28;20065;-50
2022/05/03 00:39:14;;;;;;;6.47;5.60;;;15.10;49.20;;;;;;5037979;28;20459;-48
2022/05/03 00:41:53;;;;;;;6.30;5.68;;;15.00;49.20;;;;;;5044857;28;20055;-52
2022/05/03 00:44:58;;;;;;;6.40;5.30;;;15.00;49.70;;;;;;5047098;28;20084;-52
2022/05/03 00:47:39;;;;;;;5.57;5.07;;;14.90;50.00;;;;;;5046865;28;20095;-49
2022/05/03 00:50:24;;;;;;;;;;;14.80;49.20;;;;;;5042407;28;20037;-54
2022/05/03 00:53:12;;;;;;;4.68;4.25;;;14.70;48.90;;;;;;5049498;28;19928;-52
2022/05/03 00:56:00;;;;;;;5.70;4.38;;;14.60;49.60;;;;;;5047032;28;20029;-48
2022/05/03 00:59:04;;;;;;;5.55;4.90;;;14.60;49.60;;;;;;5029022;28;20057;-50
2022/05/03 01:02:02;;;;;;;5.22;4.72;;;14.40;50.30;;;;;;5041230;28;20424;-52
2022/05/03 01:04:35;;;;;;;5.90;4.85;;;14.30;50.10;;;;;;5048326;28;20435;-53
2022/05/03 01:07:19;;;;;;;6.25;4.72;;;14.30;49.90;;;;;;5047387;28;20459;-52
2022/05/03 01:10:17;;;;;;;5.75;5.25;;;14.20;50.80;;;;;;5030233;28;20041;-51
2022/05/03 01:13:11;;;;;;;4.80;4.40;;;14.10;51.00;;;;;;5015960;28;20065;-52
2022/05/03 01:15:42;;;;;;;5.55;4.28;;;14.00;50.90;;;;;;5045752;28;20500;-51
2022/05/03 01:18:32;;;;;;;5.60;4.70;;;13.90;50.30;;;;;;5048599;28;20059;-50
2022/05/03 01:21:27;;;;;;;5.75;4.88;;;13.80;51.00;;;;;;5033812;28;20040;-52
2022/05/03 01:24:19;;;;;;;8.48;5.63;;;13.80;50.60;;;;;;5027579;28;20045;-50
2022/05/03 01:27:08;;;;;;;5.40;4.78;;;13.70;51.80;;;;;;5046675;28;20033;-52
2022/05/03 01:29:37;;;;;;;7.28;4.95;;;13.60;51.60;;;;;;5040899;28;20059;-49
2022/05/03 01:32:15;;;;;;;8.05;6.38;;;13.50;50.90;;;;;;5048127;28;20052;-50
2022/05/03 01:34:46;;;;;;;6.53;5.40;;;13.50;51.90;;;;;;5044208;28;20071;-49
2022/05/03 01:37:55;;;;;;;;;;;13.40;51.60;;;;;;5038064;28;20046;-49
2022/05/03 01:40:41;;;;;;;5.97;5.30;;;13.50;51.10;;;;;;4946395;29;20026;-51
2022/05/03 01:43:45;;;;;;;7.93;5.60;;;13.40;51.40;;;;;;4945455;29;20590;-48
2022/05/03 01:46:27;;;;;;;7.07;5.63;;;13.30;52.00;;;;;;5033409;28;20045;-51
2022/05/03 01:52:11;;;;;;;8.70;5.65;;;13.30;51.10;;;;;;5047971;28;19952;-51
2022/05/03 01:55:06;;;;;;;6.10;5.53;;;13.20;51.10;;;;;;5041780;28;20069;-50
2022/05/03 01:58:21;;;;;;;7.18;6.47;;;13.10;52.20;;;;;;5039050;28;20072;-49
2022/05/03 02:01:04;;;;;;;6.95;6.25;;;13.10;52.50;;;;;;4958927;28;20089;-51
2022/05/03 02:03:40;;;;;;;8.75;6.85;;;13.00;52.20;;;;;;5047869;28;20492;-53
2022/05/03 02:06:13;;;;;;;7.93;7.13;;;13.00;51.60;;;;;;5038291;28;20041;-52
2022/05/03 02:09:02;;;;;;;8.45;7.10;;;13.00;51.90;;;;;;5041706;28;20056;-53
2022/05/03 02:12:07;;;;;;;11.00;6.57;;;12.90;52.80;;;;;;5046541;28;20064;-50
2022/05/03 02:14:46;;;;;;;6.97;6.28;;;12.90;52.90;;;;;;5046690;28;20037;-52
2022/05/03 02:17:31;;;;;;;7.38;6.35;;;12.90;52.30;;;;;;5038489;28;20092;-50
2022/05/03 02:20:31;;;;;;;7.20;6.50;;;12.80;53.10;;;;;;5034177;28;20041;-49
2022/05/03 02:23:27;;;;;;;7.60;6.00;;;12.80;53.10;;;;;;5037248;28;20084;-51
2022/05/03 02:26:08;;;;;;;6.20;5.68;;;12.80;53.10;;;;;;5041189;28;20112;-50
2022/05/03 02:28:43;;;;;;;7.57;6.20;;;12.80;52.10;;;;;;5048830;28;20041;-51
2022/05/03 02:31:13;;;;;;;7.20;6.15;;;12.70;52.80;;;;;;5045900;28;20069;-52
2022/05/03 02:33:58;;;;;;;9.38;6.78;;;12.70;52.60;;;;;;5036990;28;20099;-52
2022/05/03 02:36:32;;;;;;;6.18;5.57;;;12.70;53.10;;;;;;5041172;28;20088;-53
2022/05/03 02:39:08;;;;;;;7.22;6.53;;;12.60;52.60;;;;;;5039412;28;20064;-51
2022/05/03 02:41:39;;;;;;;6.95;6.30;;;12.60;52.90;;;;;;5049014;28;20117;-52
2022/05/03 02:44:06;;;;;;;8.45;6.07;;;12.60;53.00;;;;;;5047002;28;20049;-50
2022/05/03 02:46:54;;;;;;;7.05;6.35;;;12.60;52.60;;;;;;5049479;28;20476;-53
2022/05/03 02:49:38;;;;;;;7.97;6.10;;;12.50;52.80;;;;;;5049087;28;20048;-52
2022/05/03 02:52:36;;;;;;;7.50;6.80;;;12.50;53.40;;;;;;5051214;28;20497;-50
2022/05/03 02:55:18;;;;;;;7.10;6.40;;;12.50;53.40;;;;;;5046486;28;20651;-52
2022/05/03 02:57:46;;;;;;;6.32;5.75;;;12.40;52.50;;;;;;5050650;28;20064;-49
2022/05/03 03:03:15;;;;;;;7.10;5.95;;;12.40;52.80;;;;;;5046100;28;20068;-52
2022/05/03 03:05:57;;;;;;;8.02;6.57;;;12.40;53.50;;;;;;5031101;28;20460;-48
2022/05/03 03:08:26;;;;;;;7.18;6.45;;;12.30;53.30;;;;;;5041029;28;20049;-49
2022/05/03 03:11:05;;;;;;;6.68;5.63;;;12.30;52.90;;;;;;5040802;28;20037;-51
2022/05/03 03:13:56;;;;;;;6.18;5.57;;;12.20;53.30;;;;;;5039536;28;20064;-50
2022/05/03 03:16:33;;;;;;;7.32;6.10;;;12.20;53.80;;;;;;5040220;28;20060;-51
2022/05/03 03:19:14;;;;;;;6.53;5.88;;;12.20;53.40;;;;;;5044101;23;20092;-49
2022/05/03 03:21:45;;;;;;;9.50;6.47;;;12.20;53.60;;;;;;5008711;28;20045;-50
2022/05/03 03:24:17;;;;;;;11.13;7.47;;;12.10;52.90;;;;;;5011870;28;20033;-49
2022/05/03 03:26:50;;;;;;;10.63;8.55;;;12.10;53.00;;;;;;5003590;28;20070;-49
2022/05/03 03:29:24;;;;;;;11.82;9.70;;;12.00;53.10;;;;;;4980778;28;20100;-50
2022/05/03 03:31:54;;;;;;;15.37;9.27;;;12.00;53.20;;;;;;4999538;28;20046;-50
2022/05/03 03:34:24;;;;;;;14.27;9.95;;;11.90;53.10;;;;;;4991342;28;20454;-49
2022/05/03 03:37:01;;;;;;;17.60;11.18;;;11.90;53.10;;;;;;4985511;28;20579;-46
2022/05/03 03:39:36;;;;;;;16.33;10.32;;;11.80;53.30;;;;;;5001310;28;20488;-50
2022/05/03 03:42:08;;;;;;;19.48;10.30;;;11.80;53.60;;;;;;4994317;28;20054;-49
2022/05/03 03:44:36;;;;;;;13.27;9.32;;;11.80;53.40;;;;;;4990076;28;20060;-49
2022/05/03 03:47:08;;;;;;;14.25;9.50;;;11.70;53.50;;;;;;4984687;28;20137;-51
2022/05/03 03:49:38;;;;;;;;;;;11.70;53.50;;;;;;4987976;28;20033;-50
2022/05/03 03:52:07;;;;;;;16.42;9.38;;;11.70;53.50;;;;;;5010809;28;19921;-51
2022/05/03 03:54:37;;;;;;;20.25;10.38;;;11.70;53.10;;;;;;4986452;28;20130;-49
2022/05/03 03:57:08;;;;;;;;;;;11.70;53.50;;;;;;5002979;28;20185;-47
2022/05/03 03:59:44;;;;;;;16.10;11.25;;;11.60;53.30;;;;;;4998435;28;19977;-51
2022/05/03 04:02:11;;;;;;;30.75;17.67;;;11.60;52.80;;;;;;5002140;28;20030;-51
2022/05/03 04:04:40;;;;;;;46.65;22.48;;;11.50;53.20;;;;;;4998373;28;20101;-47
2022/05/03 04:07:07;;;;;;;56.15;25.80;;;11.50;53.60;;;;;;5002045;28;20101;-49
2022/05/03 04:09:40;;;;;;;56.28;30.33;;;11.50;53.70;;;;;;4983327;28;20034;-48
2022/05/03 04:12:08;;;;;;;51.78;28.38;;;11.50;54.10;;;;;;4991381;28;20129;-51
2022/05/03 04:14:39;;;;;;;43.00;25.02;;;11.50;53.90;;;;;;4985733;28;20125;-51
2022/05/03 04:17:06;;;;;;;41.92;22.67;;;11.50;54.10;;;;;;4992928;28;20516;-49
2022/05/03 04:19:35;;;;;;;40.85;23.63;;;11.50;53.90;;;;;;4999603;28;20850;-51
2022/05/03 04:22:12;;;;;;;41.30;23.10;;;11.50;54.10;;;;;;5002376;28;20125;-50
2022/05/03 04:24:43;;;;;;;41.40;22.48;;;11.50;54.10;;;;;;4998359;28;20072;-51
2022/05/03 04:27:12;;;;;;;35.88;21.65;;;11.50;54.20;;;;;;5001839;28;20030;-49
2022/05/03 04:29:42;;;;;;;33.63;19.98;;;11.50;54.20;;;;;;5011883;28;20069;-49
2022/05/03 04:32:11;;;;;;;33.17;18.08;;;11.50;54.30;;;;;;5007417;28;20505;-49
2022/05/03 04:34:40;;;;;;;32.97;17.83;;;11.50;54.50;;;;;;4993256;28;20085;-48
2022/05/03 04:37:07;;;;;;;27.33;15.88;;;11.50;54.40;;;;;;4989443;28;20097;-50
2022/05/03 04:39:36;;;;;;;23.90;13.93;;;11.50;54.40;;;;;;4990960;28;20046;-47
2022/05/03 04:42:05;;;;;;;18.90;12.65;;;11.50;54.40;;;;;;4981364;28;20046;-48
2022/05/03 04:44:35;;;;;;;17.33;11.57;;;11.50;54.50;;;;;;4990275;28;20060;-47
2022/05/03 04:47:02;;;;;;;20.13;10.93;;;11.50;54.60;;;;;;4997534;28;20545;-47
2022/05/03 04:49:29;;;;;;;16.38;11.00;;;11.50;54.70;;;;;;5010569;28;20041;-48
2022/05/03 04:51:57;;;;;;;18.38;10.90;;;11.50;54.70;;;;;;4998743;28;20569;-48
2022/05/03 04:54:26;;;;;;;15.73;10.45;;;11.50;54.80;;;;;;4993765;28;20058;-47
2022/05/03 04:57:00;;;;;;;17.63;10.63;;;11.50;54.70;;;;;;5009561;28;20692;-51
2022/05/03 04:59:30;;;;;;;14.25;9.15;;;11.60;55.20;;;;;;4998887;28;20081;-48
2022/05/03 05:01:59;;;;;;;16.98;10.40;;;11.50;55.00;;;;;;4988429;28;20128;-50
2022/05/03 05:04:26;;;;;;;14.93;9.70;;;11.50;55.10;;;;;;4998576;28;20041;-48
2022/05/03 05:06:53;;;;;;;14.05;9.20;;;11.50;55.20;;;;;;4989910;28;20035;-50
2022/05/03 05:09:21;;;;;;;14.02;8.38;;;11.50;55.00;;;;;;4987655;28;20042;-48
2022/05/03 05:11:52;;;;;;;10.70;7.65;;;11.60;55.10;;;;;;4997242;28;20088;-48
2022/05/03 05:14:20;;;;;;;10.38;8.05;;;11.60;55.30;;;;;;5000128;28;20092;-49
2022/05/03 05:16:48;;;;;;;9.07;6.70;;;11.60;55.90;;;;;;4990997;28;20050;-52
2022/05/03 05:19:18;;;;;;;9.70;6.55;;;11.70;55.70;;;;;;4988582;28;20447;-51
2022/05/03 05:21:49;;;;;;;8.95;6.05;;;11.70;55.70;;;;;;4990733;28;20141;-48
2022/05/03 05:24:16;;;;;;;9.15;5.80;;;11.70;55.60;;;;;;4979736;28;20055;-50
2022/05/03 05:26:45;;;;;;;6.55;5.22;;;11.70;55.70;;;;;;4974955;28;20062;-48
2022/05/03 05:29:12;;;;;;;6.50;4.85;;;11.80;55.70;;;;;;5003998;28;20041;-47
2022/05/03 05:31:39;;;;;;;7.07;5.05;;;11.80;55.70;;;;;;4998162;28;20076;-51
2022/05/03 05:34:08;;;;;;;8.45;5.00;;;11.90;55.50;;;;;;4988711;28;20592;-49
2022/05/03 05:36:35;;;;;;;6.82;5.13;;;11.90;55.30;;;;;;4988780;28;20050;-44
2022/05/03 05:39:04;;;;;;;8.95;5.47;;;11.90;55.00;;;;;;4996447;28;20128;-50
2022/05/03 05:41:36;;;;;;;6.97;5.47;;;12.00;55.30;;;;;;4997792;28;20088;-50
2022/05/03 05:44:04;;;;;;;6.30;4.72;;;12.00;55.10;;;;;;4991150;28;20105;-46
2022/05/03 05:46:33;;;;;;;5.95;4.50;;;12.10;55.10;;;;;;4986563;28;20038;-47
2022/05/03 05:49:00;;;;;;;6.88;5.18;;;12.10;54.70;;;;;;4996519;28;20417;-48
2022/05/03 05:51:27;;;;;;;7.65;5.82;;;12.20;54.60;;;;;;4998600;28;20058;-49
2022/05/03 05:53:56;;;;;;;5.22;4.57;;;12.20;54.60;;;;;;5008296;28;20092;-45
2022/05/03 05:56:26;;;;;;;5.60;4.93;;;12.20;54.40;;;;;;4987174;28;20052;-51
2022/05/03 05:58:59;;;;;;;6.35;5.68;;;12.30;54.40;;;;;;5001530;28;20049;-48
2022/05/03 06:01:26;;;;;;;5.10;4.63;;;12.40;54.40;;;;;;4998833;28;20119;-45
2022/05/03 06:03:53;;;;;;;6.60;5.10;;;12.40;54.20;;;;;;4988838;28;20050;-46
2022/05/03 06:06:22;;;;;;;7.22;4.85;;;12.40;54.20;;;;;;4989195;28;20042;-47
2022/05/03 06:08:50;;;;;;;6.40;4.70;;;12.50;54.10;;;;;;5000660;28;20047;-45
2022/05/03 06:11:19;;;;;;;7.80;5.38;;;12.50;54.20;;;;;;5005153;28;20053;-50
2022/05/03 06:13:47;;;;;;;8.23;5.90;;;12.60;54.50;;;;;;5009243;28;20042;-46
2022/05/03 06:16:18;;;;;;;8.18;5.05;;;12.60;54.40;;;;;;4987280;28;20081;-47
2022/05/03 06:18:51;;;;;;;6.53;5.82;;;12.70;54.40;;;;;;4998305;28;20034;-48
2022/05/03 06:21:20;;;;;;;6.05;5.45;;;12.70;54.00;;;;;;4994534;28;20128;-47
2022/05/03 06:23:47;;;;;;;7.93;5.75;;;12.70;53.80;;;;;;4993219;28;20077;-48
2022/05/03 06:26:13;;;;;;;7.35;5.78;;;12.80;53.90;;;;;;4987183;28;20042;-48
2022/05/03 06:28:44;;;;;;;6.82;5.30;;;12.80;53.90;;;;;;5005535;28;20065;-49
2022/05/03 06:31:13;;;;;;;5.80;5.07;;;12.70;53.70;;;;;;4999766;28;20053;-48
2022/05/03 06:33:42;;;;;;;6.15;5.10;;;12.80;53.80;;;;;;4989989;28;20036;-49
2022/05/03 06:36:19;;;;;;;7.70;5.53;;;12.80;54.40;;;;;;5000234;28;20041;-48
2022/05/03 06:38:48;;;;;;;;;;;12.80;53.80;;;;;;5000784;28;20097;-49
2022/05/03 06:41:16;;;;;;;5.45;4.15;;;12.90;53.50;;;;;;4994064;28;19992;-46
2022/05/03 06:43:43;;;;;;;4.78;4.07;;;12.90;52.80;;;;;;4991498;28;20047;-48
2022/05/03 06:46:12;;;;;;;9.20;5.10;;;13.00;52.60;;;;;;4975247;28;20070;-47
2022/05/03 06:48:39;;;;;;;6.70;4.57;;;13.00;52.80;;;;;;5001248;28;20050;-46
2022/05/03 06:51:06;;;;;;;4.78;4.10;;;13.10;52.60;;;;;;4993878;28;20453;-47
2022/05/03 06:53:33;;;;;;;5.32;4.07;;;13.10;52.30;;;;;;4990824;28;20097;-46
2022/05/03 06:56:00;;;;;;;6.63;4.18;;;13.20;52.30;;;;;;4998965;28;20393;-48
2022/05/03 06:58:29;;;;;;;5.50;4.03;;;13.20;52.10;;;;;;4984769;28;20081;-48
2022/05/03 07:01:10;;;;;;;5.03;3.90;;;13.30;52.20;;;;;;4996872;28;20046;-49
2022/05/03 07:03:38;;;;;;;4.80;4.20;;;13.40;51.60;;;;;;4989262;28;20474;-48
2022/05/03 07:06:05;;;;;;;5.47;3.67;;;13.40;51.30;;;;;;4997400;28;20065;-50
2022/05/03 07:08:35;;;;;;;5.32;4.05;;;13.50;51.20;;;;;;4995137;28;20045;-47
2022/05/03 07:11:02;;;;;;;4.15;3.28;;;13.60;51.50;;;;;;4991464;28;20038;-47
2022/05/03 07:13:33;;;;;;;5.25;3.50;;;13.60;51.10;;;;;;4998563;28;20367;-46
2022/05/03 07:16:02;;;;;;;5.28;4.03;;;13.70;51.00;;;;;;4972862;28;20066;-46
2022/05/03 07:24:02;;;;;;;6.38;3.25;;;13.80;50.30;;;;;;4993195;28;20064;-51
2022/05/03 07:26:32;;;;;;;3.60;3.10;;;13.90;50.30;;;;;;4993538;28;20094;-49
2022/05/03 07:28:59;;;;;;;5.78;3.35;;;13.90;50.30;;;;;;5004682;28;20051;-47
2022/05/03 07:31:26;;;;;;;6.10;3.75;;;14.00;50.10;;;;;;4988052;28;20480;-49
2022/05/03 07:33:56;;;;;;;5.72;3.83;;;14.10;50.00;;;;;;4999027;28;20046;-48
2022/05/03 07:36:23;;;;;;;4.50;3.28;;;14.20;50.20;;;;;;4993315;28;20051;-51
2022/05/03 07:38:50;;;;;;;4.00;3.30;;;14.20;50.00;;;;;;4993655;28;20509;-48
2022/05/03 07:41:19;;;;;;;4.03;3.60;;;14.20;49.30;;;;;;4997764;28;20054;-49
2022/05/03 07:43:48;;;;;;;3.38;3.03;;;14.30;49.10;;;;;;5000457;28;20034;-47
2022/05/03 07:46:14;;;;;;;3.72;3.05;;;14.40;49.40;;;;;;5005177;28;20041;-46
2022/05/03 07:48:43;;;;;;;2.83;2.25;;;14.50;49.40;;;;;;4991980;28;20477;-51
2022/05/03 07:51:12;;;;;;;4.88;2.33;;;14.50;47.90;;;;;;5001718;28;20042;-45
2022/05/03 07:53:45;;;;;;;2.08;1.88;;;14.60;47.80;;;;;;5000737;28;20042;-48
2022/05/03 07:56:12;;;;;;;3.78;2.00;;;14.70;47.20;;;;;;4990557;28;20038;-49
2022/05/03 07:58:41;;;;;;;1.48;1.20;;;14.70;47.40;;;;;;4990507;28;20050;-47
2022/05/03 08:01:18;;;;;;;1.67;1.58;;;14.80;46.40;;;;;;4995286;28;20109;-51
2022/05/03 08:03:45;;;;;;;3.03;1.60;;;14.90;46.10;;;;;;4993781;28;20038;-47
2022/05/03 08:06:13;;;;;;;2.28;1.55;;;15.00;46.20;;;;;;4990549;28;20050;-50
2022/05/03 08:08:39;;;;;;;1.90;1.38;;;15.00;45.30;;;;;;4988099;28;20042;-50
2022/05/03 08:11:06;;;;;;;1.95;1.85;;;15.10;45.50;;;;;;5000101;28;20533;-47
2022/05/03 08:13:33;;;;;;;4.47;1.95;;;15.20;45.50;;;;;;5003678;28;20042;-49
2022/05/03 08:16:19;;;;;;;1.90;1.45;;;15.20;44.90;;;;;;5002382;28;20056;-46
2022/05/03 08:18:48;;;;;;;2.40;1.83;;;15.30;43.70;;;;;;4997144;28;20057;-47
2022/05/03 08:21:19;;;;;;;1.60;1.50;;;15.40;44.20;;;;;;4996689;28;20098;-45
2022/05/03 08:23:46;;;;;;;3.28;1.77;;;15.50;44.10;;;;;;5005374;28;20049;-50
2022/05/03 08:26:15;;;;;;;2.75;1.85;;;15.50;44.30;;;;;;5005348;28;20064;-47
2022/05/03 08:28:47;;;;;;;2.65;1.70;;;15.60;43.90;;;;;;4997895;28;20034;-49
2022/05/03 08:31:21;;;;;;;2.15;1.88;;;15.60;44.00;;;;;;4999675;28;20069;-51
2022/05/03 08:33:48;;;;;;;2.20;2.00;;;15.70;44.20;;;;;;4991352;28;20062;-49
2022/05/03 08:36:18;;;;;;;2.15;1.65;;;15.70;43.50;;;;;;4988424;28;20041;-48
2022/05/03 08:44:17;;;;;;;1.60;1.50;;;15.80;43.90;;;;;;4991702;28;20054;-47
2022/05/03 08:46:49;;;;;;;2.30;2.10;;;15.90;43.20;;;;;;4984087;28;20400;-48
2022/05/03 08:49:20;;;;;;;4.60;2.03;;;15.90;43.30;;;;;;4999647;28;20498;-47
2022/05/03 08:51:52;;;;;;;1.50;1.40;;;16.00;43.30;;;;;;4991695;28;20055;-48
2022/05/03 08:54:21;;;;;;;3.45;2.20;;;16.00;43.30;;;;;;4986547;28;20042;-48
2022/05/03 08:56:48;;;;;;;3.63;1.80;;;16.10;42.90;;;;;;5003201;28;20045;-48
2022/05/03 08:59:17;;;;;;;1.70;1.60;;;16.00;43.30;;;;;;4997544;28;20069;-47
2022/05/03 09:01:45;;;;;;;3.15;1.80;;;16.10;43.40;;;;;;4988787;28;20042;-47
2022/05/03 09:04:14;;;;;;;4.28;1.80;;;16.10;42.80;;;;;;4997463;28;20071;-48
2022/05/03 09:06:46;;;;;;;4.43;2.30;;;16.20;42.80;;;;;;5000661;28;20513;-47
2022/05/03 09:09:14;;;;;;;3.05;2.08;;;16.20;42.70;;;;;;5007022;28;20046;-47
2022/05/03 09:11:51;;;;;;;2.72;1.83;;;16.30;42.40;;;;;;4991411;28;20069;-51
2022/05/03 09:14:37;;;;;;;2.90;2.35;;;16.30;42.50;;;;;;4994255;28;20424;-49
2022/05/03 09:17:04;;;;;;;5.03;1.88;;;16.40;42.30;;;;;;4990797;28;20509;-49
2022/05/03 09:19:32;;;;;;;2.95;1.90;;;16.40;42.30;;;;;;4989882;28;20045;-51
2022/05/03 09:24:58;;;;;;;2.42;2.08;;;16.50;42.60;;;;;;4996621;28;20049;-49
2022/05/03 09:27:26;;;;;;;3.20;1.88;;;16.60;42.30;;;;;;4999855;28;20457;-49
2022/05/03 09:30:08;;;;;;;1.63;1.50;;;16.70;42.10;;;;;;4991344;28;20041;-48
2022/05/03 09:32:37;;;;;;;2.13;1.88;;;16.70;41.00;;;;;;4990678;28;20097;-51
2022/05/03 09:35:07;;;;;;;3.35;2.10;;;16.70;41.60;;;;;;4998793;28;20046;-51
2022/05/03 09:37:43;;;;;;;1.70;1.50;;;16.80;41.20;;;;;;5010255;28;20425;-51
2022/05/03 09:40:12;;;;;;;2.85;1.88;;;16.80;41.30;;;;;;4998142;28;20089;-48
2022/05/03 09:42:57;;;;;;;2.05;1.45;;;16.90;40.90;;;;;;4994691;28;20049;-51
2022/05/03 09:45:28;;;;;;;2.28;1.67;;;16.90;41.40;;;;;;5005509;28;20107;-48
2022/05/03 09:47:56;;;;;;;2.90;1.70;;;16.90;40.70;;;;;;4991816;28;20540;-46
2022/05/03 09:50:29;;;;;;;1.60;1.50;;;16.90;40.40;;;;;;4993573;28;20038;-48
2022/05/03 09:53:09;;;;;;;2.15;1.67;;;17.00;39.50;;;;;;5003454;28;20093;-47
2022/05/03 09:55:37;;;;;;;2.10;1.40;;;17.00;41.00;;;;;;4995295;28;20042;-49
2022/05/03 09:58:06;;;;;;;2.47;1.83;;;17.10;41.10;;;;;;5011807;28;20045;-50
2022/05/03 10:00:34;;;;;;;3.03;2.30;;;17.10;40.80;;;;;;5000270;28;20050;-50
2022/05/03 10:03:06;;;;;;;2.10;1.90;;;17.10;40.60;;;;;;4994374;28;20100;-47
2022/05/03 10:05:39;;;;;;;4.18;2.50;;;17.20;41.10;;;;;;5002504;28;20528;-51
2022/05/03 10:08:10;;;;;;;4.20;2.15;;;17.20;41.50;;;;;;5004248;28;20034;-49
2022/05/03 10:10:44;;;;;;;2.50;2.30;;;17.30;40.50;;;;;;4995154;28;20141;-52
2022/05/03 10:13:13;;;;;;;3.53;1.73;;;17.30;40.70;;;;;;5001656;28;20050;-50
2022/05/03 10:21:41;;;;;;;1.73;1.55;;;17.50;40.70;;;;;;4968464;28;20101;-50
2022/05/03 10:24:12;;;;;;;3.45;1.92;;;17.50;41.00;;;;;;4993880;28;20149;-52
2022/05/03 10:27:01;;;;;;;3.75;2.42;;;17.60;41.00;;;;;;4988020;28;20070;-47
2022/05/03 10:29:37;;;;;;;2.83;2.00;;;17.60;39.90;;;;;;4991326;28;20054;-52
2022/05/03 10:32:09;;;;;;;1.70;1.45;;;17.70;41.70;;;;;;4994857;28;20034;-52
2022/05/03 10:34:49;;;;;;;3.03;2.55;;;17.70;41.20;;;;;;4991232;28;20467;-48
2022/05/03 10:37:20;;;;;;;7.47;2.00;;;17.80;40.50;;;;;;4994681;28;20049;-52
2022/05/03 10:39:57;;;;;;;2.08;1.88;;;17.90;41.40;;;;;;5000827;28;20041;-51
2022/05/03 10:42:33;;;;;;;5.82;2.33;;;17.90;41.60;;;;;;4994849;28;20070;-48
2022/05/03 10:45:22;;;;;;;2.80;1.92;;;17.90;41.30;;;;;;4992119;28;20042;-52
2022/05/03 10:47:54;;;;;;;1.98;1.77;;;18.00;40.60;;;;;;4992003;28;20505;-46
2022/05/03 10:50:43;;;;;;;10.68;2.78;;;18.00;40.20;;;;;;5000720;28;20046;-48
2022/05/03 10:53:17;;;;;;;4.93;1.95;;;18.10;40.40;;;;;;5012632;28;20453;-50
2022/05/03 10:56:08;;;;;;;2.53;1.90;;;18.10;41.60;;;;;;4999634;28;20046;-52
2022/05/03 10:58:36;;;;;;;1.77;1.67;;;18.10;40.50;;;;;;4997521;28;20046;-49
2022/05/03 11:01:21;;;;;;;1.75;1.55;;;18.20;41.00;;;;;;5004468;28;20041;-48
2022/05/03 11:03:57;;;;;;;3.38;2.00;;;18.20;40.70;;;;;;4984043;28;20756;-48
2022/05/03 11:06:26;;;;;;;4.53;2.08;;;18.30;41.30;;;;;;4987466;28;20046;-48
2022/05/03 11:09:05;;;;;;;2.85;2.38;;;18.40;41.50;;;;;;5001503;28;20044;-49
2022/05/03 11:11:40;;;;;;;1.98;1.67;;;18.40;40.80;;;;;;5001179;28;20053;-51
2022/05/03 11:14:15;;;;;;;2.05;1.73;;;18.40;41.60;;;;;;4993005;28;20737;-48
2022/05/03 11:16:47;;;;;;;2.90;2.00;;;18.60;40.50;;;;;;4985735;28;20038;-52
2022/05/03 11:19:16;;;;;;;1.77;1.67;;;18.50;41.00;;;;;;4999807;28;20383;-52
2022/05/03 11:21:48;;;;;;;2.95;2.40;;;18.60;41.20;;;;;;4996964;28;20113;-52
2022/05/03 11:24:20;;;;;;;2.50;2.17;;;18.60;40.40;;;;;;4999031;28;20042;-52
2022/05/03 11:26:50;;;;;;;2.55;2.17;;;18.60;40.50;;;;;;5003127;28;20042;-52
2022/05/03 11:29:19;;;;;;;3.28;2.58;;;18.70;40.50;;;;;;5007659;28;20042;-51
2022/05/03 11:31:58;;;;;;;3.08;2.72;;;18.70;40.00;;;;;;5000098;28;20054;-52
2022/05/03 11:34:26;;;;;;;2.05;1.90;;;18.80;40.00;;;;;;4998739;28;20038;-52
2022/05/03 11:36:55;;;;;;;6.88;3.20;;;18.80;40.50;;;;;;5003773;28;20029;-52
2022/05/03 11:39:23;;;;;;;3.00;2.63;;;18.80;40.40;;;;;;5003183;28;20446;-48
2022/05/03 11:41:50;;;;;;;2.75;2.47;;;18.90;40.00;;;;;;5012461;28;20061;-49
2022/05/03 11:44:23;;;;;;;3.03;2.00;;;19.00;39.90;;;;;;5000320;28;20042;-51
2022/05/03 11:46:49;;;;;;;3.17;2.88;;;19.00;40.90;;;;;;5003470;28;20409;-52
2022/05/03 11:49:20;;;;;;;5.60;2.35;;;19.10;40.00;;;;;;4994485;28;20046;-49
2022/05/03 11:57:40;;;;;;;4.05;2.50;;;19.30;39.70;;;;;;4998256;28;20037;-50
2022/05/03 12:00:13;;;;;;;2.15;1.95;;;19.40;39.40;;;;;;4991934;28;20034;-52
2022/05/03 12:02:44;;;;;;;3.20;2.30;;;19.40;39.80;;;;;;4990279;28;20528;-49
2022/05/03 12:05:20;;;;;;;3.85;3.10;;;19.50;39.80;;;;;;4997854;28;20042;-49
2022/05/03 12:07:55;;;;;;;4.18;2.72;;;19.50;39.40;;;;;;5002775;28;20030;-50
2022/05/03 12:10:38;;;;;;;2.95;2.65;;;19.60;39.60;;;;;;4994352;28;20445;-51
2022/05/03 12:13:24;;;;;;;2.60;2.40;;;19.70;39.80;;;;;;4992806;28;20029;-49
2022/05/03 12:15:57;;;;;;;2.75;2.33;;;19.70;40.10;;;;;;4990249;28;20489;-51
2022/05/03 12:18:37;;;;;;;2.38;2.17;;;19.80;39.80;;;;;;4992052;28;20062;-51
2022/05/03 12:21:21;;;;;;;4.35;2.03;;;19.80;40.40;;;;;;4992342;28;20090;-52
2022/05/03 12:23:50;;;;;;;1.73;1.63;;;19.90;40.40;;;;;;4995711;28;20038;-50
2022/05/03 12:26:18;;;;;;;2.88;2.30;;;20.00;40.70;;;;;;5010704;28;20042;-53
2022/05/03 12:28:51;;;;;;;3.17;1.90;;;20.10;40.00;;;;;;4994971;28;20508;-49
2022/05/03 12:31:26;;;;;;;3.22;2.72;;;20.20;39.00;;;;;;4994314;28;20130;-52
2022/05/03 12:33:55;;;;;;;4.47;2.65;;;20.30;38.70;;;;;;4998809;28;20454;-49
2022/05/03 12:36:42;;;;;;;2.75;2.55;;;20.40;38.90;;;;;;5009727;28;20049;-50
2022/05/03 12:39:09;;;;;;;2.70;2.50;;;20.50;38.40;;;;;;4999800;28;20045;-50
2022/05/03 12:41:36;;;;;;;2.55;2.35;;;20.60;38.80;;;;;;4993346;28;20046;-50
2022/05/03 12:44:13;;;;;;;5.03;2.65;;;20.60;39.40;;;;;;4993169;28;20096;-53
2022/05/03 12:46:42;;;;;;;3.15;2.20;;;20.70;39.10;;;;;;4990963;28;20793;-55
2022/05/03 12:49:12;;;;;;;2.20;2.00;;;20.70;38.50;;;;;;4989617;28;20066;-55
2022/05/03 12:51:48;;;;;;;2.97;2.67;;;20.80;38.10;;;;;;4998285;28;20567;-55
2022/05/03 12:54:23;;;;;;;3.28;2.42;;;20.90;37.60;;;;;;5002013;28;20038;-53
2022/05/03 12:59:37;;;;;;;11.30;4.13;;;21.10;38.20;;;;;;4993625;28;20038;-54
2022/05/03 13:02:09;;;;;;;3.40;2.42;;;21.20;37.90;;;;;;4990657;28;20514;-55
2022/05/03 13:04:40;;;;;;;4.75;2.90;;;21.30;38.00;;;;;;4971565;28;20038;-53
2022/05/03 13:07:07;;;;;;;2.15;1.98;;;21.50;38.20;;;;;;4954971;28;20141;-50
2022/05/03 13:09:34;;;;;;;2.55;2.35;;;21.50;37.20;;;;;;4987396;28;20065;-51
2022/05/03 13:12:01;;;;;;;3.20;2.63;;;21.70;37.10;;;;;;4970623;28;20031;-51
2022/05/03 13:14:29;;;;;;;3.92;3.42;;;21.80;36.90;;;;;;4988402;28;20069;-50
2022/05/03 13:16:56;;;;;;;2.90;2.40;;;21.90;36.80;;;;;;4972722;28;20045;-51
2022/05/03 13:19:23;;;;;;;3.35;2.88;;;22.00;36.40;;;;;;4986787;28;20054;-52
2022/05/03 13:21:50;;;;;;;5.82;2.67;;;22.20;36.90;;;;;;4975075;28;20049;-53
2022/05/03 13:24:16;;;;;;;3.67;2.33;;;22.30;37.00;;;;;;4985390;28;20105;-50
2022/05/03 13:26:43;;;;;;;2.85;2.47;;;22.40;36.50;;;;;;4975125;28;20105;-52
2022/05/03 13:29:17;;;;;;;2.78;2.47;;;22.50;36.70;;;;;;4996770;28;20042;-52
2022/05/03 13:31:45;;;;;;;2.70;2.50;;;22.50;35.90;;;;;;4975644;28;20035;-54
2022/05/03 13:34:13;;;;;;;2.50;2.30;;;23.00;36.70;;;;;;4985885;28;20062;-52
2022/05/03 13:42:12;;;;;;;3.00;1.83;;;24.80;36.40;;;;;;4978832;28;20076;-51
2022/05/03 13:44:40;;;;;;;3.10;1.98;;;26.00;35.90;;;;;;4988896;28;20043;-54
2022/05/03 13:47:11;;;;;;;2.67;2.40;;;27.00;35.30;;;;;;4972804;28;20045;-50
2022/05/03 13:49:39;;;;;;;2.58;2.38;;;28.00;33.80;;;;;;4997229;28;20704;-54
2022/05/03 13:52:07;;;;;;;1.92;1.77;;;29.00;32.70;;;;;;4978665;28;20502;-53
2022/05/03 13:54:34;;;;;;;2.25;2.10;;;30.00;32.40;;;;;;4988481;28;20105;-53
2022/05/03 13:57:01;;;;;;;2.28;2.05;;;31.00;31.20;;;;;;4976953;28;20092;-53